TimeEST,TemperatureF,Dew PointF,Humidity,Sea Level PressureIn,VisibilityMPH,Wind Direction,Wind SpeedMPH,Gust SpeedMPH,PrecipitationIn,Events,Conditions,WindDirDegrees,DateUTC
12:00 AM,37.9,35.6,91,-9999,-9999.0,West,3.5,-,N/A,,Unknown,280,2012-11-22 05:00:00
1:00 AM,36,35,94,,,West,3.5,,,,,270,2012-11-22 06:00:00
1:00 AM,36.3,34.9,95,-9999,-9999.0,West,3.5,-,N/A,,Unknown,270,2012-11-22 06:00:00
2:00 AM,36.9,36.0,97,-9999,-9999.0,WNW,1.2,-,N/A,,Unknown,290,2012-11-22 07:00:00
3:00 AM,37.0,36.7,99,-9999,-9999.0,West,1.2,-,N/A,,Unknown,260,2012-11-22 08:00:00
4:00 AM,39.0,38.8,99,-9999,-9999.0,West,3.5,-,N/A,,Unknown,280,2012-11-22 09:00:00
5:00 AM,39.4,38.8,98,-9999,-9999.0,West,2.3,-,N/A,,Unknown,260,2012-11-22 10:00:00
6:00 AM,39.2,38.7,98,-9999,-9999.0,West,3.5,-,N/A,,Unknown,270,2012-11-22 11:00:00
7:00 AM,40,39,94,,,West,3.5,,,,,270,2012-11-22 12:00:00
7:00 AM,40.3,38.8,95,-9999,-9999.0,West,3.5,-,N/A,,Unknown,270,2012-11-22 12:00:00
8:00 AM,41.7,39.6,92,-9999,-9999.0,WSW,3.5,-,N/A,,Unknown,250,2012-11-22 13:00:00
9:00 AM,44.2,40.1,85,-9999,-9999.0,WSW,4.6,-,N/A,,Unknown,250,2012-11-22 14:00:00
10:00 AM,47.8,41.4,78,-9999,-9999.0,WSW,5.8,-,N/A,,Unknown,250,2012-11-22 15:00:00
11:00 AM,52.7,43.2,70,-9999,-9999.0,West,5.8,-,N/A,,Unknown,260,2012-11-22 16:00:00
12:00 PM,57.7,44.1,60,-9999,-9999.0,WSW,6.9,-,N/A,,Unknown,240,2012-11-22 17:00:00
1:00 PM,59,44,46,,,WSW,9.2,,,,,240,2012-11-22 18:00:00
1:00 PM,59.4,43.7,56,-9999,-9999.0,WSW,9.2,19.6,N/A,,Unknown,240,2012-11-22 18:00:00
2:00 PM,60.8,43.5,53,-9999,-9999.0,SW,8.1,-,N/A,,Unknown,230,2012-11-22 19:00:00
3:00 PM,60.1,43.3,54,-9999,-9999.0,WSW,6.9,-,N/A,,Unknown,240,2012-11-22 20:00:00
4:00 PM,57.7,42.6,57,-9999,-9999.0,SW,6.9,-,N/A,,Unknown,230,2012-11-22 21:00:00
5:00 PM,54.3,40.5,59,-9999,-9999.0,SW,3.5,-,N/A,,Unknown,230,2012-11-22 22:00:00
6:00 PM,51.6,40.8,67,-9999,-9999.0,SW,2.3,-,N/A,,Unknown,230,2012-11-22 23:00:00
7:00 PM,51,41,59,,,West,3.5,,,,,270,2012-11-23 00:00:00
7:00 PM,50.7,40.8,69,-9999,-9999.0,West,3.5,-,N/A,,Unknown,270,2012-11-23 00:00:00
8:00 PM,50.4,40.5,69,-9999,-9999.0,West,2.3,-,N/A,,Unknown,260,2012-11-23 01:00:00
9:00 PM,50.0,39.6,67,-9999,-9999.0,West,4.6,-,N/A,,Unknown,270,2012-11-23 02:00:00
10:00 PM,50.5,38.8,64,-9999,-9999.0,WSW,3.5,-,N/A,,Unknown,250,2012-11-23 03:00:00
11:00 PM,52.0,38.7,60,-9999,-9999.0,WSW,5.8,-,N/A,,Unknown,250,2012-11-23 04:00:00